sensor_id;sensor_type;location;lat;lon;timestamp;pressure;altitude;pressure_sealevel;temperature;humidity
17615;BME280;8926;49.720;6.576;2023-09-12T00:01:59;99243.94;;;23.51;72.42
17615;BME280;8926;49.720;6.576;2023-09-12T00:04:25;99238.25;;;23.54;73.00
17615;BME280;8926;49.720;6.576;2023-09-12T00:06:50;99238.91;;;23.56;73.19
17615;BME280;8926;49.720;6.576;2023-09-12T00:09:16;99241.94;;;23.53;72.63
17615;BME280;8926;49.720;6.576;2023-09-12T00:11:41;99240.16;;;23.46;72.76
17615;BME280;8926;49.720;6.576;2023-09-12T00:14:08;99246.19;;;23.40;73.32
17615;BME280;8926;49.720;6.576;2023-09-12T00:16:34;99240.88;;;23.40;73.77
17615;BME280;8926;49.720;6.576;2023-09-12T00:18:59;99229.00;;;23.42;72.82
17615;BME280;8926;49.720;6.576;2023-09-12T00:21:24;99235.75;;;23.38;72.75
17615;BME280;8926;49.720;6.576;2023-09-12T00:23:50;99231.41;;;23.37;73.24
17615;BME280;8926;49.720;6.576;2023-09-12T00:26:15;99234.69;;;23.39;73.12
17615;BME280;8926;49.720;6.576;2023-09-12T00:28:40;99226.69;;;23.39;73.34
17615;BME280;8926;49.720;6.576;2023-09-12T00:31:06;99222.41;;;23.38;73.90
17615;BME280;8926;49.720;6.576;2023-09-12T00:33:31;99231.78;;;23.34;74.11
17615;BME280;8926;49.720;6.576;2023-09-12T00:35:57;99235.81;;;23.30;73.14
17615;BME280;8926;49.720;6.576;2023-09-12T00:38:22;99229.53;;;23.23;72.42
17615;BME280;8926;49.720;6.576;2023-09-12T00:40:47;99235.22;;;23.20;73.47
17615;BME280;8926;49.720;6.576;2023-09-12T00:43:13;99231.06;;;23.17;74.00
17615;BME280;8926;49.720;6.576;2023-09-12T00:45:38;99228.78;;;23.14;73.94
17615;BME280;8926;49.720;6.576;2023-09-12T00:48:04;99230.00;;;23.12;74.54
17615;BME280;8926;49.720;6.576;2023-09-12T00:50:31;99228.03;;;23.06;73.85
17615;BME280;8926;49.720;6.576;2023-09-12T00:52:58;99224.06;;;23.01;74.13
17615;BME280;8926;49.720;6.576;2023-09-12T00:55:24;99226.72;;;23.01;73.42
17615;BME280;8926;49.720;6.576;2023-09-12T00:57:49;99244.72;;;22.99;73.81
17615;BME280;8926;49.720;6.576;2023-09-12T01:00:16;99236.09;;;22.97;74.43
17615;BME280;8926;49.720;6.576;2023-09-12T01:02:43;99245.09;;;22.96;74.90
17615;BME280;8926;49.720;6.576;2023-09-12T01:05:10;99232.78;;;22.95;74.47
17615;BME280;8926;49.720;6.576;2023-09-12T01:07:37;99229.63;;;22.92;74.30
17615;BME280;8926;49.720;6.576;2023-09-12T01:10:03;99227.69;;;22.86;74.43
17615;BME280;8926;49.720;6.576;2023-09-12T01:12:29;99218.22;;;22.83;74.24
17615;BME280;8926;49.720;6.576;2023-09-12T01:14:54;99218.59;;;22.80;73.64
17615;BME280;8926;49.720;6.576;2023-09-12T01:17:20;99224.22;;;22.77;74.05
17615;BME280;8926;49.720;6.576;2023-09-12T01:19:45;99231.91;;;22.72;74.52
17615;BME280;8926;49.720;6.576;2023-09-12T01:28:05;99223.94;;;22.72;74.62
17615;BME280;8926;49.720;6.576;2023-09-12T01:30:34;99226.94;;;22.69;73.83
17615;BME280;8926;49.720;6.576;2023-09-12T01:33:00;99221.88;;;22.59;75.08
17615;BME280;8926;49.720;6.576;2023-09-12T01:35:25;99220.91;;;22.52;74.73
17615;BME280;8926;49.720;6.576;2023-09-12T01:37:51;99211.44;;;22.50;74.97
17615;BME280;8926;49.720;6.576;2023-09-12T01:40:16;99203.13;;;22.45;74.15
17615;BME280;8926;49.720;6.576;2023-09-12T01:42:45;99211.53;;;22.33;74.43
17615;BME280;8926;49.720;6.576;2023-09-12T01:45:13;99211.91;;;22.30;74.51
17615;BME280;8926;49.720;6.576;2023-09-12T01:47:41;99213.56;;;22.31;74.39
17615;BME280;8926;49.720;6.576;2023-09-12T01:50:08;99220.16;;;22.35;73.75
17615;BME280;8926;49.720;6.576;2023-09-12T01:52:35;99220.81;;;22.38;74.41
17615;BME280;8926;49.720;6.576;2023-09-12T01:55:01;99224.78;;;22.42;74.20
17615;BME280;8926;49.720;6.576;2023-09-12T01:57:27;99229.09;;;22.43;74.03
17615;BME280;8926;49.720;6.576;2023-09-12T01:59:52;99228.44;;;22.41;73.83
17615;BME280;8926;49.720;6.576;2023-09-12T02:02:18;99222.53;;;22.30;74.25
17615;BME280;8926;49.720;6.576;2023-09-12T02:07:43;99220.28;;;22.11;75.43
17615;BME280;8926;49.720;6.576;2023-09-12T02:10:09;99222.94;;;22.11;75.72
17615;BME280;8926;49.720;6.576;2023-09-12T02:12:37;99230.66;;;22.06;75.82
17615;BME280;8926;49.720;6.576;2023-09-12T02:15:03;99220.66;;;22.00;76.26
17615;BME280;8926;49.720;6.576;2023-09-12T02:17:28;99227.31;;;21.96;76.28
17615;BME280;8926;49.720;6.576;2023-09-12T02:19:54;99219.84;;;21.91;75.74
17615;BME280;8926;49.720;6.576;2023-09-12T02:22:19;99221.19;;;21.87;75.48
17615;BME280;8926;49.720;6.576;2023-09-12T02:24:44;99224.34;;;21.83;75.99
17615;BME280;8926;49.720;6.576;2023-09-12T02:27:10;99226.00;;;21.84;76.79
17615;BME280;8926;49.720;6.576;2023-09-12T02:29:35;99222.72;;;21.82;75.69
17615;BME280;8926;49.720;6.576;2023-09-12T02:32:00;99218.59;;;21.79;76.24
17615;BME280;8926;49.720;6.576;2023-09-12T02:34:26;99219.75;;;21.77;76.54
17615;BME280;8926;49.720;6.576;2023-09-12T02:36:51;99221.41;;;21.78;75.76
17615;BME280;8926;49.720;6.576;2023-09-12T02:39:16;99221.41;;;21.78;77.45
17615;BME280;8926;49.720;6.576;2023-09-12T02:41:42;99227.22;;;21.81;77.03
17615;BME280;8926;49.720;6.576;2023-09-12T02:44:07;99221.91;;;21.81;77.67
17615;BME280;8926;49.720;6.576;2023-09-12T02:46:33;99221.41;;;21.78;78.12
17615;BME280;8926;49.720;6.576;2023-09-12T02:48:58;99215.25;;;21.77;77.28
17615;BME280;8926;49.720;6.576;2023-09-12T02:51:25;99214.78;;;21.74;78.12
17615;BME280;8926;49.720;6.576;2023-09-12T02:53:50;99205.13;;;21.73;77.19
17615;BME280;8926;49.720;6.576;2023-09-12T02:56:16;99213.09;;;21.73;76.90
17615;BME280;8926;49.720;6.576;2023-09-12T02:58:41;99214.44;;;21.77;76.62
17615;BME280;8926;49.720;6.576;2023-09-12T03:01:06;99216.38;;;21.83;77.88
17615;BME280;8926;49.720;6.576;2023-09-12T03:03:32;99219.88;;;21.83;78.54
17615;BME280;8926;49.720;6.576;2023-09-12T03:05:59;99217.69;;;21.87;77.32
17615;BME280;8926;49.720;6.576;2023-09-12T03:08:24;99225.34;;;21.90;77.75
17615;BME280;8926;49.720;6.576;2023-09-12T03:10:57;99227.31;;;21.96;78.17
17615;BME280;8926;49.720;6.576;2023-09-12T03:13:26;99227.66;;;22.01;78.79
17615;BME280;8926;49.720;6.576;2023-09-12T03:15:52;99220.66;;;22.00;77.18
17615;BME280;8926;49.720;6.576;2023-09-12T03:18:17;99218.50;;;21.95;77.87
17615;BME280;8926;49.720;6.576;2023-09-12T03:20:43;99221.69;;;21.91;78.21
17615;BME280;8926;49.720;6.576;2023-09-12T03:23:08;99216.34;;;21.91;77.96
17615;BME280;8926;49.720;6.576;2023-09-12T03:25:37;99219.69;;;21.93;77.00
17615;BME280;8926;49.720;6.576;2023-09-12T03:28:05;99227.16;;;21.89;77.99
17615;BME280;8926;49.720;6.576;2023-09-12T03:30:35;99224.03;;;21.86;78.25
17615;BME280;8926;49.720;6.576;2023-09-12T03:33:01;99206.41;;;21.85;78.03
17615;BME280;8926;49.720;6.576;2023-09-12T03:35:28;99209.72;;;21.87;77.61
17615;BME280;8926;49.720;6.576;2023-09-12T03:37:54;99196.13;;;21.82;77.25
17615;BME280;8926;49.720;6.576;2023-09-12T03:40:19;99190.16;;;21.80;77.82
17615;BME280;8926;49.720;6.576;2023-09-12T03:42:44;99173.53;;;21.78;77.27
17615;BME280;8926;49.720;6.576;2023-09-12T03:45:10;99172.22;;;21.74;77.61
17615;BME280;8926;49.720;6.576;2023-09-12T03:47:35;99180.88;;;21.76;77.78
17615;BME280;8926;49.720;6.576;2023-09-12T03:50:01;99182.88;;;21.74;77.80
17615;BME280;8926;49.720;6.576;2023-09-12T03:52:27;99185.34;;;21.75;78.57
17615;BME280;8926;49.720;6.576;2023-09-12T03:54:52;99193.50;;;21.74;78.42
17615;BME280;8926;49.720;6.576;2023-09-12T03:57:18;99190.19;;;21.72;78.91
17615;BME280;8926;49.720;6.576;2023-09-12T03:59:43;99183.19;;;21.71;78.41
17615;BME280;8926;49.720;6.576;2023-09-12T04:02:08;99181.53;;;21.70;78.25
17615;BME280;8926;49.720;6.576;2023-09-12T04:04:34;99183.53;;;21.67;79.02
17615;BME280;8926;49.720;6.576;2023-09-12T04:06:59;99189.53;;;21.61;78.95
17615;BME280;8926;49.720;6.576;2023-09-12T04:09:24;99185.94;;;21.54;81.21
17615;BME280;8926;49.720;6.576;2023-09-12T04:11:50;99192.25;;;21.53;80.07
17615;BME280;8926;49.720;6.576;2023-09-12T04:14:15;99192.25;;;21.53;81.10
17615;BME280;8926;49.720;6.576;2023-09-12T04:16:40;99201.88;;;21.54;80.11
17615;BME280;8926;49.720;6.576;2023-09-12T04:19:06;99202.03;;;21.53;81.02
17615;BME280;8926;49.720;6.576;2023-09-12T04:21:31;99199.22;;;21.54;79.66
17615;BME280;8926;49.720;6.576;2023-09-12T04:23:56;99200.38;;;21.52;80.57
17615;BME280;8926;49.720;6.576;2023-09-12T04:26:22;99199.38;;;21.53;80.91
17615;BME280;8926;49.720;6.576;2023-09-12T04:28:47;99202.03;;;21.53;80.56
17615;BME280;8926;49.720;6.576;2023-09-12T04:31:13;99207.34;;;21.53;80.71
17615;BME280;8926;49.720;6.576;2023-09-12T04:33:38;99206.88;;;21.49;80.68
17615;BME280;8926;49.720;6.576;2023-09-12T04:36:03;99210.53;;;21.48;80.83
17615;BME280;8926;49.720;6.576;2023-09-12T04:38:29;99210.84;;;21.45;80.30
17615;BME280;8926;49.720;6.576;2023-09-12T04:41:00;99213.53;;;21.37;80.63
17615;BME280;8926;49.720;6.576;2023-09-12T04:43:31;99217.50;;;21.33;80.82
17615;BME280;8926;49.720;6.576;2023-09-12T04:45:57;99214.56;;;21.28;80.26
17615;BME280;8926;49.720;6.576;2023-09-12T04:48:22;99214.06;;;21.24;80.92
17615;BME280;8926;49.720;6.576;2023-09-12T04:50:48;99211.19;;;21.18;81.02
17615;BME280;8926;49.720;6.576;2023-09-12T04:53:13;99209.88;;;21.14;81.30
17615;BME280;8926;49.720;6.576;2023-09-12T04:55:39;99205.38;;;21.14;81.14
17615;BME280;8926;49.720;6.576;2023-09-12T04:58:04;99215.72;;;21.25;80.75
17615;BME280;8926;49.720;6.576;2023-09-12T05:00:30;99219.03;;;21.27;81.00
17615;BME280;8926;49.720;6.576;2023-09-12T05:02:56;99218.22;;;21.27;80.90
17615;BME280;8926;49.720;6.576;2023-09-12T05:05:21;99224.50;;;21.26;80.75
17615;BME280;8926;49.720;6.576;2023-09-12T05:07:46;99231.16;;;21.22;80.69
17615;BME280;8926;49.720;6.576;2023-09-12T05:10:12;99238.44;;;21.20;80.58
17615;BME280;8926;49.720;6.576;2023-09-12T05:12:37;99234.59;;;21.14;81.34
17615;BME280;8926;49.720;6.576;2023-09-12T05:15:03;99239.59;;;21.17;81.26
17615;BME280;8926;49.720;6.576;2023-09-12T05:17:28;99246.28;;;21.21;80.59
17615;BME280;8926;49.720;6.576;2023-09-12T05:19:53;99253.75;;;21.26;79.75
17615;BME280;8926;49.720;6.576;2023-09-12T05:22:19;99250.09;;;21.27;79.48
17615;BME280;8926;49.720;6.576;2023-09-12T05:24:45;99246.44;;;21.28;80.85
17615;BME280;8926;49.720;6.576;2023-09-12T05:27:11;99250.59;;;21.30;81.63
17615;BME280;8926;49.720;6.576;2023-09-12T05:29:36;99253.06;;;21.32;81.14
17615;BME280;8926;49.720;6.576;2023-09-12T05:32:02;99247.41;;;21.35;80.44
17615;BME280;8926;49.720;6.576;2023-09-12T05:34:27;99247.06;;;21.38;80.30
17615;BME280;8926;49.720;6.576;2023-09-12T05:36:52;99238.75;;;21.49;80.21
17615;BME280;8926;49.720;6.576;2023-09-12T05:39:18;99242.72;;;21.61;80.07
17615;BME280;8926;49.720;6.576;2023-09-12T05:41:43;99243.69;;;21.77;79.47
17615;BME280;8926;49.720;6.576;2023-09-12T05:44:08;99242.28;;;21.97;79.26
17615;BME280;8926;49.720;6.576;2023-09-12T05:46:34;99241.06;;;22.16;78.61
17615;BME280;8926;49.720;6.576;2023-09-12T05:49:00;99244.69;;;22.54;77.27
17615;BME280;8926;49.720;6.576;2023-09-12T05:51:25;99235.44;;;23.33;74.49
17615;BME280;8926;49.720;6.576;2023-09-12T05:53:50;99238.06;;;24.00;72.52
17615;BME280;8926;49.720;6.576;2023-09-12T05:56:16;99239.66;;;24.60;70.04
17615;BME280;8926;49.720;6.576;2023-09-12T05:58:41;99228.88;;;25.11;68.91
17615;BME280;8926;49.720;6.576;2023-09-12T06:01:08;99232.31;;;25.60;66.51
17615;BME280;8926;49.720;6.576;2023-09-12T06:03:33;99235.09;;;26.15;66.48
17615;BME280;8926;49.720;6.576;2023-09-12T06:05:59;99246.44;;;26.71;65.43
17615;BME280;8926;49.720;6.576;2023-09-12T06:08:24;99240.34;;;27.23;64.06
17615;BME280;8926;49.720;6.576;2023-09-12T06:10:49;99258.50;;;27.67;61.48
17615;BME280;8926;49.720;6.576;2023-09-12T06:13:19;99255.53;;;27.95;60.45
17615;BME280;8926;49.720;6.576;2023-09-12T06:15:44;99256.22;;;28.35;61.82
17615;BME280;8926;49.720;6.576;2023-09-12T06:18:09;99248.16;;;28.80;59.63
17615;BME280;8926;49.720;6.576;2023-09-12T06:20:35;99252.81;;;29.23;59.14
17615;BME280;8926;49.720;6.576;2023-09-12T06:23:00;99244.09;;;29.27;56.28
17615;BME280;8926;49.720;6.576;2023-09-12T06:25:25;99247.03;;;29.69;55.08
17615;BME280;8926;49.720;6.576;2023-09-12T06:27:51;99251.66;;;30.05;53.86
17615;BME280;8926;49.720;6.576;2023-09-12T06:30:16;99243.41;;;30.18;51.91
17615;BME280;8926;49.720;6.576;2023-09-12T06:32:41;99250.91;;;30.34;55.77
17615;BME280;8926;49.720;6.576;2023-09-12T06:35:07;99249.00;;;30.83;52.88
17615;BME280;8926;49.720;6.576;2023-09-12T06:37:32;99255.97;;;30.61;52.83
17615;BME280;8926;49.720;6.576;2023-09-12T06:39:58;99252.16;;;30.80;52.54
17615;BME280;8926;49.720;6.576;2023-09-12T06:42:23;99255.03;;;31.09;50.97
17615;BME280;8926;49.720;6.576;2023-09-12T06:44:48;99253.31;;;31.26;50.33
17615;BME280;8926;49.720;6.576;2023-09-12T06:47:14;99265.00;;;30.66;50.19
17615;BME280;8926;49.720;6.576;2023-09-12T06:49:39;99263.19;;;30.12;52.28
17615;BME280;8926;49.720;6.576;2023-09-12T06:52:05;99265.03;;;29.50;52.86
17615;BME280;8926;49.720;6.576;2023-09-12T06:54:30;99264.66;;;28.90;54.94
17615;BME280;8926;49.720;6.576;2023-09-12T06:56:55;99269.00;;;28.53;55.81
17615;BME280;8926;49.720;6.576;2023-09-12T06:59:21;99270.69;;;28.41;56.00
17615;BME280;8926;49.720;6.576;2023-09-12T07:01:46;99259.19;;;28.27;56.18
17615;BME280;8926;49.720;6.576;2023-09-12T07:04:11;99263.75;;;28.07;56.98
17615;BME280;8926;49.720;6.576;2023-09-12T07:06:37;99264.56;;;28.14;57.23
17615;BME280;8926;49.720;6.576;2023-09-12T07:09:02;99261.25;;;28.12;57.19
17615;BME280;8926;49.720;6.576;2023-09-12T07:11:29;99256.09;;;28.17;56.76
17615;BME280;8926;49.720;6.576;2023-09-12T07:13:54;99263.44;;;28.42;56.69
17615;BME280;8926;49.720;6.576;2023-09-12T07:16:20;99268.63;;;28.36;56.38
17615;BME280;8926;49.720;6.576;2023-09-12T07:18:45;99259.88;;;27.90;57.55
17615;BME280;8926;49.720;6.576;2023-09-12T07:21:11;99260.56;;;27.65;58.65
17615;BME280;8926;49.720;6.576;2023-09-12T07:23:37;99272.50;;;27.83;58.28
17615;BME280;8926;49.720;6.576;2023-09-12T07:26:02;99263.81;;;27.87;58.22
17615;BME280;8926;49.720;6.576;2023-09-12T07:28:29;99264.56;;;28.14;57.38
17615;BME280;8926;49.720;6.576;2023-09-12T07:30:55;99262.47;;;28.29;57.07
17615;BME280;8926;49.720;6.576;2023-09-12T07:33:20;99262.66;;;28.34;56.79
17615;BME280;8926;49.720;6.576;2023-09-12T07:35:47;99267.47;;;28.64;56.45
17615;BME280;8926;49.720;6.576;2023-09-12T07:38:12;99258.13;;;28.73;56.07
17615;BME280;8926;49.720;6.576;2023-09-12T07:40:40;99259.28;;;28.90;55.61
17615;BME280;8926;49.720;6.576;2023-09-12T07:43:05;99262.06;;;29.09;54.91
17615;BME280;8926;49.720;6.576;2023-09-12T07:45:32;99263.44;;;28.86;55.02
17615;BME280;8926;49.720;6.576;2023-09-12T07:48:03;99268.44;;;28.76;55.80
17615;BME280;8926;49.720;6.576;2023-09-12T07:50:29;99273.00;;;28.82;56.04
17615;BME280;8926;49.720;6.576;2023-09-12T07:52:54;99278.63;;;29.06;54.88
17615;BME280;8926;49.720;6.576;2023-09-12T07:55:19;99266.69;;;29.51;53.52
17615;BME280;8926;49.720;6.576;2023-09-12T07:57:45;99260.22;;;29.77;53.47
17615;BME280;8926;49.720;6.576;2023-09-12T08:00:10;99260.00;;;29.97;52.08
17615;BME280;8926;49.720;6.576;2023-09-12T08:02:36;99262.53;;;30.47;50.22
17615;BME280;8926;49.720;6.576;2023-09-12T08:05:02;99260.53;;;30.90;49.51
17615;BME280;8926;49.720;6.576;2023-09-12T08:07:27;99255.81;;;30.97;49.83
17615;BME280;8926;49.720;6.576;2023-09-12T08:09:53;99266.59;;;30.56;50.27
17615;BME280;8926;49.720;6.576;2023-09-12T08:12:20;99265.22;;;30.47;50.10
17615;BME280;8926;49.720;6.576;2023-09-12T08:14:46;99271.50;;;30.77;49.74
17615;BME280;8926;49.720;6.576;2023-09-12T08:17:12;99266.16;;;31.00;49.60
17615;BME280;8926;49.720;6.576;2023-09-12T08:19:37;99268.34;;;31.22;48.71
17615;BME280;8926;49.720;6.576;2023-09-12T08:22:03;99273.28;;;31.25;49.00
17615;BME280;8926;49.720;6.576;2023-09-12T08:24:29;99268.47;;;30.85;49.74
17615;BME280;8926;49.720;6.576;2023-09-12T08:26:54;99273.19;;;30.42;50.41
17615;BME280;8926;49.720;6.576;2023-09-12T08:29:20;99276.34;;;30.57;50.69
17615;BME280;8926;49.720;6.576;2023-09-12T08:31:45;99274.38;;;30.46;50.17
17615;BME280;8926;49.720;6.576;2023-09-12T08:34:12;99280.84;;;30.26;50.61
17615;BME280;8926;49.720;6.576;2023-09-12T08:36:37;99269.03;;;30.09;51.48
17615;BME280;8926;49.720;6.576;2023-09-12T08:39:03;99276.19;;;30.33;50.83
17615;BME280;8926;49.720;6.576;2023-09-12T08:41:29;99273.34;;;30.65;50.46
17615;BME280;8926;49.720;6.576;2023-09-12T08:43:55;99282.94;;;30.91;49.26
17615;BME280;8926;49.720;6.576;2023-09-12T08:46:22;99278.59;;;31.01;49.47
17615;BME280;8926;49.720;6.576;2023-09-12T08:48:49;99271.44;;;31.60;47.85
17615;BME280;8926;49.720;6.576;2023-09-12T08:51:14;99265.00;;;31.85;47.61
17615;BME280;8926;49.720;6.576;2023-09-12T08:53:40;99281.50;;;31.30;48.15
17615;BME280;8926;49.720;6.576;2023-09-12T08:56:05;99264.28;;;30.89;48.78
17615;BME280;8926;49.720;6.576;2023-09-12T08:58:32;99278.25;;;30.50;49.78
17615;BME280;8926;49.720;6.576;2023-09-12T09:00:59;99271.06;;;30.14;51.05
17615;BME280;8926;49.720;6.576;2023-09-12T09:03:25;99269.03;;;30.09;51.05
17615;BME280;8926;49.720;6.576;2023-09-12T09:05:52;99275.34;;;29.96;51.56
17615;BME280;8926;49.720;6.576;2023-09-12T09:08:20;99269.56;;;29.93;51.66
17615;BME280;8926;49.720;6.576;2023-09-12T09:10:58;99267.50;;;30.31;50.80
17615;BME280;8926;49.720;6.576;2023-09-12T09:13:25;99274.38;;;30.46;51.57
17615;BME280;8926;49.720;6.576;2023-09-12T09:16:18;99271.31;;;30.90;50.12
17615;BME280;8926;49.720;6.576;2023-09-12T09:18:57;99274.72;;;31.39;48.13
17615;BME280;8926;49.720;6.576;2023-09-12T09:21:25;99280.59;;;31.36;48.33
17615;BME280;8926;49.720;6.576;2023-09-12T09:23:54;99267.22;;;31.41;48.24
17615;BME280;8926;49.720;6.576;2023-09-12T09:26:19;99266.75;;;31.44;48.52
17615;BME280;8926;49.720;6.576;2023-09-12T09:28:45;99267.81;;;31.01;49.26
17615;BME280;8926;49.720;6.576;2023-09-12T09:31:25;99265.81;;;30.67;49.94
17615;BME280;8926;49.720;6.576;2023-09-12T09:33:50;99268.06;;;30.52;50.13
17615;BME280;8926;49.720;6.576;2023-09-12T09:36:17;99269.53;;;30.18;51.38
17615;BME280;8926;49.720;6.576;2023-09-12T09:38:43;99268.19;;;29.65;52.63
17615;BME280;8926;49.720;6.576;2023-09-12T09:41:08;99269.22;;;29.46;52.94
17615;BME280;8926;49.720;6.576;2023-09-12T09:43:34;99284.25;;;29.29;53.12
17615;BME280;8926;49.720;6.576;2023-09-12T09:45:59;99272.34;;;29.12;53.91
17615;BME280;8926;49.720;6.576;2023-09-12T09:48:26;99267.94;;;28.92;54.15
17615;BME280;8926;49.720;6.576;2023-09-12T09:50:52;99271.75;;;28.78;54.31
17615;BME280;8926;49.720;6.576;2023-09-12T09:53:26;99265.06;;;28.56;55.03
17615;BME280;8926;49.720;6.576;2023-09-12T09:55:51;99273.22;;;28.29;55.49
17615;BME280;8926;49.720;6.576;2023-09-12T09:58:16;99275.31;;;28.08;55.85
17615;BME280;8926;49.720;6.576;2023-09-12T10:00:42;99263.81;;;27.94;56.66
17615;BME280;8926;49.720;6.576;2023-09-12T10:03:09;99259.47;;;27.86;56.64
17615;BME280;8926;49.720;6.576;2023-09-12T10:05:37;99250.19;;;27.82;57.50
17615;BME280;8926;49.720;6.576;2023-09-12T10:08:03;99252.03;;;27.82;57.25
17615;BME280;8926;49.720;6.576;2023-09-12T10:10:32;99262.63;;;27.77;57.97
17615;BME280;8926;49.720;6.576;2023-09-12T10:13:00;99278.94;;;27.75;58.41
17615;BME280;8926;49.720;6.576;2023-09-12T10:15:30;99271.72;;;27.69;58.12
17615;BME280;8926;49.720;6.576;2023-09-12T10:17:57;99272.94;;;27.60;59.37
17615;BME280;8926;49.720;6.576;2023-09-12T10:20:45;99276.66;;;27.65;58.57
17615;BME280;8926;49.720;6.576;2023-09-12T10:23:37;99274.81;;;27.59;59.62
17615;BME280;8926;49.720;6.576;2023-09-12T10:26:09;99282.41;;;27.56;60.80
17615;BME280;8926;49.720;6.576;2023-09-12T10:28:35;99278.09;;;27.61;59.63
17615;BME280;8926;49.720;6.576;2023-09-12T10:31:01;99277.69;;;27.64;60.33
17615;BME280;8926;49.720;6.576;2023-09-12T10:33:27;99281.41;;;27.63;60.80
17615;BME280;8926;49.720;6.576;2023-09-12T10:35:57;99279.34;;;27.72;61.50
17615;BME280;8926;49.720;6.576;2023-09-12T10:38:25;99272.94;;;27.80;61.97
17615;BME280;8926;49.720;6.576;2023-09-12T10:40:52;99268.78;;;27.84;61.56
17615;BME280;8926;49.720;6.576;2023-09-12T10:43:20;99268.09;;;28.08;61.29
17615;BME280;8926;49.720;6.576;2023-09-12T10:45:47;99263.31;;;28.30;59.89
17615;BME280;8926;49.720;6.576;2023-09-12T10:48:13;99266.00;;;28.68;59.10
17615;BME280;8926;49.720;6.576;2023-09-12T10:50:39;99269.53;;;29.07;58.80
17615;BME280;8926;49.720;6.576;2023-09-12T10:53:15;99255.16;;;29.44;57.88
17615;BME280;8926;49.720;6.576;2023-09-12T10:55:58;99255.03;;;30.00;56.23
17615;BME280;8926;49.720;6.576;2023-09-12T10:58:24;99258.78;;;30.48;54.31
17615;BME280;8926;49.720;6.576;2023-09-12T11:01:26;99253.66;;;30.76;53.94
17615;BME280;8926;49.720;6.576;2023-09-12T11:03:52;99254.75;;;30.87;52.09
17615;BME280;8926;49.720;6.576;2023-09-12T11:06:21;99245.72;;;30.81;52.14
17615;BME280;8926;49.720;6.576;2023-09-12T11:11:39;99245.66;;;31.11;51.63
17615;BME280;8926;49.720;6.576;2023-09-12T11:14:08;99245.88;;;31.10;51.83
17615;BME280;8926;49.720;6.576;2023-09-12T11:16:33;99239.50;;;31.34;52.25
17615;BME280;8926;49.720;6.576;2023-09-12T11:19:20;99233.97;;;31.52;51.07
17615;BME280;8926;49.720;6.576;2023-09-12T11:21:50;99238.31;;;31.53;50.48
17615;BME280;8926;49.720;6.576;2023-09-12T11:24:17;99232.44;;;31.56;50.57
17615;BME280;8926;49.720;6.576;2023-09-12T11:26:59;99237.38;;;31.59;49.83
17615;BME280;8926;49.720;6.576;2023-09-12T11:29:44;99240.44;;;31.51;50.24
17615;BME280;8926;49.720;6.576;2023-09-12T11:32:10;99234.09;;;31.57;50.16
17615;BME280;8926;49.720;6.576;2023-09-12T11:34:49;99234.56;;;31.54;49.35
17615;BME280;8926;49.720;6.576;2023-09-12T11:37:23;99234.56;;;31.54;49.21
17615;BME280;8926;49.720;6.576;2023-09-12T11:39:49;99235.50;;;31.48;49.69
17615;BME280;8926;49.720;6.576;2023-09-12T11:42:16;99232.19;;;31.46;49.41
17615;BME280;8926;49.720;6.576;2023-09-12T11:44:42;99236.91;;;31.39;49.80
17615;BME280;8926;49.720;6.576;2023-09-12T11:47:09;99243.34;;;31.50;49.95
17615;BME280;8926;49.720;6.576;2023-09-12T11:49:37;99247.63;;;31.69;49.14
17615;BME280;8926;49.720;6.576;2023-09-12T11:52:03;99242.31;;;31.62;49.55
17615;BME280;8926;49.720;6.576;2023-09-12T11:54:29;99240.34;;;31.69;49.75
17615;BME280;8926;49.720;6.576;2023-09-12T11:56:56;99233.06;;;31.70;49.69
17615;BME280;8926;49.720;6.576;2023-09-12T11:59:30;99236.19;;;31.55;49.46
17615;BME280;8926;49.720;6.576;2023-09-12T12:01:56;99237.13;;;31.26;50.06
17615;BME280;8926;49.720;6.576;2023-09-12T12:04:22;99230.09;;;31.25;50.57
17615;BME280;8926;49.720;6.576;2023-09-12T12:06:50;99235.63;;;31.30;50.01
17615;BME280;8926;49.720;6.576;2023-09-12T12:09:16;99241.25;;;31.17;50.23
17615;BME280;8926;49.720;6.576;2023-09-12T12:11:45;99241.59;;;31.32;50.62
17615;BME280;8926;49.720;6.576;2023-09-12T12:14:15;99231.06;;;31.42;49.75
17615;BME280;8926;49.720;6.576;2023-09-12T12:16:42;99235.03;;;31.28;50.08
17615;BME280;8926;49.720;6.576;2023-09-12T12:19:08;99235.84;;;31.17;49.42
17615;BME280;8926;49.720;6.576;2023-09-12T12:21:34;99232.31;;;31.28;50.25
17615;BME280;8926;49.720;6.576;2023-09-12T12:24:03;99234.69;;;31.36;50.14
17615;BME280;8926;49.720;6.576;2023-09-12T12:26:30;99225.66;;;31.42;49.92
17615;BME280;8926;49.720;6.576;2023-09-12T12:28:55;99212.75;;;31.44;49.62
17615;BME280;8926;49.720;6.576;2023-09-12T12:31:22;99229.28;;;31.36;49.69
17615;BME280;8926;49.720;6.576;2023-09-12T12:33:51;99220.47;;;31.29;49.70
17615;BME280;8926;49.720;6.576;2023-09-12T12:36:17;99211.41;;;31.23;50.03
17615;BME280;8926;49.720;6.576;2023-09-12T12:38:46;99213.06;;;31.13;49.59
17615;BME280;8926;49.720;6.576;2023-09-12T12:41:13;99219.22;;;31.01;49.90
17615;BME280;8926;49.720;6.576;2023-09-12T12:43:42;99211.97;;;30.90;49.96
17615;BME280;8926;49.720;6.576;2023-09-12T12:46:12;99215.94;;;30.88;50.72
17615;BME280;8926;49.720;6.576;2023-09-12T12:48:38;99212.69;;;30.67;50.92
17615;BME280;8926;49.720;6.576;2023-09-12T12:51:17;99217.84;;;30.57;50.63
17615;BME280;8926;49.720;6.576;2023-09-12T12:53:54;99209.53;;;30.59;51.49
17615;BME280;8926;49.720;6.576;2023-09-12T12:56:26;99219.50;;;30.58;50.66
17615;BME280;8926;49.720;6.576;2023-09-12T12:58:55;99208.59;;;30.65;50.55
17615;BME280;8926;49.720;6.576;2023-09-12T13:01:21;99204.66;;;30.79;51.22
17615;BME280;8926;49.720;6.576;2023-09-12T13:03:46;99196.22;;;30.87;50.71
17615;BME280;8926;49.720;6.576;2023-09-12T13:06:12;99197.41;;;30.91;50.29
17615;BME280;8926;49.720;6.576;2023-09-12T13:08:41;99188.97;;;30.99;49.79
17615;BME280;8926;49.720;6.576;2023-09-12T13:11:08;99191.78;;;31.04;50.17
17615;BME280;8926;49.720;6.576;2023-09-12T13:13:33;99188.78;;;31.13;49.54
17615;BME280;8926;49.720;6.576;2023-09-12T13:15:59;99187.50;;;31.15;50.35
17615;BME280;8926;49.720;6.576;2023-09-12T13:18:25;99183.75;;;31.16;50.10
17615;BME280;8926;49.720;6.576;2023-09-12T13:20:50;99181.38;;;31.20;49.86